Terminal Aerodrome Forecast
Issued by NWS Mt. Holly, NJ

Home | Current Version | Previous Version | Text Only | Print | Product List | Glossary On
Versions: 1 2 3 4 5 6 7 8 9 10 11 12 13 14 15 16 17 18 19 20 21 22
208
FTUS41 KPHI 281120
TAFPHL
TAF
KPHL 281120Z 2812/0118 00000KT P6SM BKN090 OVC120
     FM281500 16004KT P6SM SCT250
     FM282200 16007KT P6SM BKN040 BKN100
     FM010000 15006KT 2SM SHRA BR BKN025 OVC050
     FM010300 18007KT 2SM SHRA BR OVC008
     FM010600 20008KT 2SM BR OVC003 WS020/22040KT
     FM011300 21012KT P6SM BKN008 OVC010
     FM011500 21016G27KT P6SM BKN008 BKN015 PROB30 0115/0118 -SHRA
      OVC003=

USA.gov is the U.S. government's official web portal to all federal, state and local government web resources and services.